createdAt,value
2019-03-31T00:01:52.990Z,77.90
2019-03-31T00:04:23.231Z,79.50
2019-03-31T00:06:53.868Z,78.50
2019-03-31T00:09:25.502Z,77.30
2019-03-31T00:11:56.192Z,80.70
2019-03-31T00:14:26.791Z,81.50
2019-03-31T00:16:59.978Z,85.70
2019-03-31T00:19:30.156Z,89.10
2019-03-31T00:22:00.500Z,92.30
2019-03-31T00:24:30.887Z,92.00
2019-03-31T00:27:01.126Z,93.50
2019-03-31T00:29:31.404Z,92.80
2019-03-31T00:32:01.962Z,92.30
2019-03-31T00:34:32.190Z,92.70
2019-03-31T00:37:02.490Z,92.90
2019-03-31T00:39:32.827Z,92.10
2019-03-31T00:42:03.147Z,90.90
2019-03-31T00:44:36.413Z,91.70
2019-03-31T00:47:06.908Z,91.50
2019-03-31T00:49:37.292Z,91.50
2019-03-31T00:52:07.675Z,92.10
2019-03-31T00:54:37.876Z,92.30
2019-03-31T00:57:08.154Z,92.10
2019-03-31T00:59:38.648Z,93.20
2019-03-31T01:02:12.545Z,94.10
2019-03-31T01:04:43.447Z,94.40
2019-03-31T01:07:16.229Z,93.70
2019-03-31T01:09:46.719Z,94.00
2019-03-31T01:12:17.213Z,94.80
2019-03-31T01:14:47.983Z,93.00
2019-03-31T01:17:19.020Z,93.20
2019-03-31T01:19:50.103Z,92.60
2019-03-31T01:22:20.543Z,93.60
2019-03-31T01:24:51.464Z,94.30
2019-03-31T01:27:22.376Z,91.00
2019-03-31T01:29:53.057Z,93.00
2019-03-31T01:32:25.054Z,94.80
2019-03-31T01:34:55.700Z,95.70
2019-03-31T01:37:26.196Z,95.80
2019-03-31T01:39:56.566Z,92.60
2019-03-31T01:42:27.057Z,88.70
2019-03-31T01:44:57.391Z,90.90
2019-03-31T01:47:27.841Z,91.80
2019-03-31T01:49:58.225Z,92.00
2019-03-31T01:52:28.921Z,90.90
2019-03-31T01:55:00.410Z,93.40
2019-03-31T01:57:31.412Z,94.50
2019-03-31T02:00:01.726Z,93.20
2019-03-31T02:02:32.258Z,93.10
2019-03-31T02:05:02.585Z,93.70
2019-03-31T02:07:36.057Z,93.20
2019-03-31T02:10:07.140Z,90.50
2019-03-31T02:12:38.069Z,92.30
2019-03-31T02:15:29.048Z,88.90
2019-03-31T02:17:59.306Z,92.70
2019-03-31T02:20:30.012Z,91.90
2019-03-31T02:23:00.485Z,90.20
2019-03-31T02:25:30.973Z,91.40
2019-03-31T02:28:03.297Z,89.60
2019-03-31T02:30:33.554Z,90.00
2019-03-31T02:33:03.751Z,89.90
2019-03-31T02:35:35.447Z,89.10
2019-03-31T02:38:05.752Z,90.60
2019-03-31T02:40:36.355Z,91.20
2019-03-31T02:43:06.696Z,90.20
2019-03-31T02:45:37.089Z,90.60
2019-03-31T02:48:07.501Z,88.10
2019-03-31T02:50:47.062Z,86.30
2019-03-31T02:53:18.552Z,87.30
2019-03-31T02:55:49.028Z,84.70
2019-03-31T02:58:20.539Z,88.80
2019-03-31T03:00:52.115Z,89.80
2019-03-31T03:03:24.037Z,86.60
2019-03-31T03:05:56.753Z,85.30
2019-03-31T03:08:28.926Z,82.70
2019-03-31T03:11:04.712Z,82.10
2019-03-31T03:13:38.660Z,81.40
2019-03-31T03:16:17.399Z,81.40
2019-03-31T03:18:50.345Z,81.10
2019-03-31T03:21:24.128Z,80.90
2019-03-31T03:23:53.217Z,80.70
2019-03-31T03:26:23.433Z,80.10
2019-03-31T03:28:53.699Z,80.20
2019-03-31T03:31:24.010Z,80.30
2019-03-31T03:33:54.497Z,80.20
2019-03-31T03:36:25.002Z,80.20
2019-03-31T03:38:55.198Z,79.70
2019-03-31T03:41:25.649Z,80.10
2019-03-31T03:44:02.371Z,80.10
2019-03-31T03:46:30.614Z,80.20
2019-03-31T03:49:00.848Z,80.00
2019-03-31T03:51:31.391Z,79.90
2019-03-31T03:54:07.193Z,80.00
2019-03-31T03:56:37.667Z,81.70
2019-03-31T03:59:07.895Z,80.50
2019-03-31T04:01:38.748Z,81.90
2019-03-31T04:04:08.887Z,81.70
2019-03-31T04:06:39.673Z,83.70
2019-03-31T04:09:10.082Z,90.00
2019-03-31T04:11:40.324Z,88.10
2019-03-31T04:14:10.526Z,89.20
2019-03-31T04:16:40.893Z,87.10
2019-03-31T04:19:12.666Z,87.40
2019-03-31T04:21:43.393Z,90.50
2019-03-31T04:24:13.655Z,90.90
2019-03-31T04:26:46.050Z,90.60
2019-03-31T04:29:16.225Z,92.10
2019-03-31T04:31:46.552Z,93.30
2019-03-31T04:34:16.812Z,94.10
2019-03-31T04:36:47.125Z,94.10
2019-03-31T04:39:17.366Z,94.80
2019-03-31T04:41:47.807Z,93.80
2019-03-31T04:44:18.263Z,94.70
2019-03-31T04:46:49.963Z,90.20
2019-03-31T04:49:21.937Z,92.50
2019-03-31T04:51:52.435Z,93.60
2019-03-31T04:54:22.735Z,94.00
2019-03-31T04:56:53.007Z,92.90
2019-03-31T04:59:23.601Z,94.70
2019-03-31T05:01:55.879Z,92.40
2019-03-31T05:04:26.474Z,94.80
2019-03-31T05:06:56.874Z,94.40
2019-03-31T05:09:28.748Z,95.30
2019-03-31T05:12:00.559Z,94.90
2019-03-31T05:14:30.724Z,95.30
2019-03-31T05:17:01.113Z,96.00
2019-03-31T05:19:31.319Z,95.60
2019-03-31T05:22:01.651Z,95.80
2019-03-31T05:24:31.789Z,96.80
2019-03-31T05:27:02.020Z,95.40
2019-03-31T05:29:32.489Z,94.20
2019-03-31T05:32:02.692Z,93.90
2019-03-31T05:34:34.642Z,94.40
2019-03-31T05:37:04.927Z,93.30
2019-03-31T05:39:35.157Z,92.90
2019-03-31T05:42:05.415Z,92.30
2019-03-31T05:44:35.812Z,91.20
2019-03-31T05:47:06.196Z,93.20
2019-03-31T05:49:36.597Z,94.40
2019-03-31T05:52:06.972Z,93.30
2019-03-31T05:54:40.152Z,91.40
2019-03-31T05:57:10.489Z,90.70
2019-03-31T05:59:40.824Z,89.10
2019-03-31T06:02:11.112Z,90.00
2019-03-31T06:04:41.638Z,90.10
2019-03-31T06:07:13.995Z,91.40
2019-03-31T06:09:45.629Z,88.80
2019-03-31T06:12:15.815Z,90.00
2019-03-31T06:14:46.114Z,89.30
2019-03-31T06:17:16.566Z,89.50
2019-03-31T06:19:47.208Z,88.90
2019-03-31T06:22:17.685Z,87.80
2019-03-31T06:24:47.917Z,88.50
2019-03-31T06:27:19.122Z,87.80
2019-03-31T06:29:49.713Z,86.80
2019-03-31T06:32:22.729Z,86.10
2019-03-31T06:34:55.012Z,86.60
2019-03-31T06:37:25.397Z,86.90
2019-03-31T06:39:56.258Z,87.70
2019-03-31T06:42:27.554Z,87.40
2019-03-31T06:45:04.041Z,87.00
2019-03-31T06:47:34.320Z,87.40
2019-03-31T06:50:05.028Z,86.40
2019-03-31T06:52:37.494Z,86.40
2019-03-31T06:55:08.583Z,86.00
2019-03-31T06:57:38.866Z,86.10
2019-03-31T07:00:09.612Z,85.70
2019-03-31T07:02:40.057Z,85.00
2019-03-31T07:05:10.249Z,85.80
2019-03-31T07:07:40.843Z,85.40
2019-03-31T07:10:12.434Z,86.00
2019-03-31T07:12:43.017Z,84.70
2019-03-31T07:15:13.814Z,84.00
2019-03-31T07:17:44.286Z,84.70
2019-03-31T07:20:17.482Z,84.60
2019-03-31T07:22:47.573Z,84.10
2019-03-31T07:25:18.508Z,83.30
2019-03-31T07:27:54.654Z,84.30
2019-03-31T07:30:25.404Z,84.20
2019-03-31T07:32:57.083Z,83.00
2019-03-31T07:35:27.528Z,83.10
2019-03-31T07:38:03.160Z,80.00
2019-03-31T07:40:34.243Z,81.30
2019-03-31T07:43:05.723Z,81.00
2019-03-31T07:45:36.379Z,78.30
2019-03-31T07:48:08.270Z,80.10
2019-03-31T07:50:38.749Z,81.60
2019-03-31T07:53:09.055Z,81.20
2019-03-31T07:55:39.749Z,81.40
2019-03-31T07:58:10.159Z,80.50
2019-03-31T08:00:40.612Z,80.30
2019-03-31T08:03:11.417Z,80.20
2019-03-31T08:05:42.391Z,79.10
2019-03-31T08:08:12.973Z,81.60
2019-03-31T08:10:43.676Z,78.70
2019-03-31T08:13:14.206Z,78.90
2019-03-31T08:15:45.349Z,79.70
2019-03-31T08:18:15.634Z,78.10
2019-03-31T08:20:46.027Z,75.10
2019-03-31T08:23:17.216Z,74.30
2019-03-31T08:25:48.100Z,77.20
2019-03-31T08:28:18.497Z,71.60
2019-03-31T08:30:48.801Z,69.40
2019-03-31T08:33:18.998Z,69.60
2019-03-31T08:35:52.122Z,74.70
2019-03-31T08:38:24.427Z,72.50
2019-03-31T08:40:54.568Z,72.80
2019-03-31T08:43:25.170Z,71.50
2019-03-31T08:45:58.725Z,68.30
2019-03-31T08:48:30.369Z,70.80
2019-03-31T08:51:00.819Z,69.50
2019-03-31T08:53:32.820Z,71.20
2019-03-31T08:56:08.680Z,69.50
2019-03-31T08:58:38.201Z,71.50
2019-03-31T09:01:12.963Z,68.60
2019-03-31T09:03:58.652Z,71.80
2019-03-31T09:06:29.048Z,71.10
2019-03-31T09:08:59.440Z,67.80
2019-03-31T09:11:29.842Z,73.70
2019-03-31T09:14:00.117Z,68.60
2019-03-31T09:16:30.709Z,67.70
2019-03-31T09:19:01.250Z,67.10
2019-03-31T09:21:32.875Z,64.70
2019-03-31T09:24:03.271Z,70.60
2019-03-31T09:26:34.063Z,64.60
2019-03-31T09:29:04.863Z,63.90
2019-03-31T09:31:39.881Z,62.50
2019-03-31T09:34:26.450Z,64.20
2019-03-31T09:42:50.685Z,68.70
2019-03-31T09:45:21.565Z,64.70
2019-03-31T09:47:52.267Z,63.00
2019-03-31T09:50:23.247Z,64.30
2019-03-31T09:52:53.973Z,65.30
2019-03-31T09:55:25.027Z,66.50
2019-03-31T09:57:55.248Z,63.80
2019-03-31T10:00:46.897Z,61.70
2019-03-31T10:03:17.600Z,62.60
2019-03-31T10:05:48.481Z,63.70
2019-03-31T10:08:21.953Z,65.00
2019-03-31T10:10:51.502Z,66.40
2019-03-31T10:13:22.371Z,65.00
2019-03-31T10:15:53.893Z,62.70
2019-03-31T10:18:24.881Z,63.40
2019-03-31T10:20:55.490Z,63.60
2019-03-31T10:23:25.718Z,64.00
2019-03-31T10:25:56.712Z,68.00
2019-03-31T10:28:30.334Z,66.40
2019-03-31T10:31:01.073Z,63.40
2019-03-31T10:33:31.376Z,66.80
2019-03-31T10:36:01.680Z,66.40
2019-03-31T10:38:32.657Z,66.30
2019-03-31T10:41:03.037Z,65.80
2019-03-31T10:43:33.354Z,67.10
2019-03-31T10:46:04.038Z,65.70
2019-03-31T10:48:34.505Z,64.40
2019-03-31T10:51:12.992Z,66.70
2019-03-31T10:53:43.702Z,62.30
2019-03-31T10:56:13.873Z,65.00
2019-03-31T10:58:44.498Z,65.40
2019-03-31T11:01:15.063Z,64.60
2019-03-31T11:03:46.041Z,64.00
2019-03-31T11:06:16.136Z,66.60
2019-03-31T11:08:46.734Z,62.50
2019-03-31T11:11:17.109Z,65.40
2019-03-31T11:14:01.228Z,66.20
2019-03-31T11:16:42.970Z,65.50
2019-03-31T11:19:24.440Z,62.10
2019-03-31T11:22:30.568Z,60.70
2019-03-31T11:25:01.433Z,60.90
2019-03-31T11:27:35.551Z,61.30
2019-03-31T11:30:08.445Z,63.20
2019-03-31T11:32:40.356Z,62.70
2019-03-31T11:35:11.137Z,58.90
2019-03-31T11:37:41.695Z,62.00
2019-03-31T11:40:12.591Z,59.30
2019-03-31T11:42:43.002Z,67.00
2019-03-31T11:45:13.864Z,58.10
2019-03-31T11:47:44.953Z,63.20
2019-03-31T11:50:16.000Z,58.50
2019-03-31T11:52:46.565Z,58.60
2019-03-31T11:55:17.558Z,60.10
2019-03-31T11:57:55.729Z,55.30
2019-03-31T12:00:27.604Z,60.60
2019-03-31T12:02:58.616Z,57.10
2019-03-31T12:05:31.381Z,58.10
2019-03-31T12:08:05.197Z,59.20
2019-03-31T12:10:37.472Z,60.30
2019-03-31T12:13:08.181Z,61.10
2019-03-31T12:15:38.747Z,62.90
2019-03-31T12:18:09.180Z,60.90
2019-03-31T12:20:39.923Z,62.20
2019-03-31T12:23:10.913Z,61.90
2019-03-31T12:25:41.440Z,61.30
2019-03-31T12:28:11.810Z,56.50
2019-03-31T12:30:42.301Z,62.00
2019-03-31T12:33:12.770Z,56.30
2019-03-31T12:35:43.150Z,62.10
2019-03-31T12:38:13.642Z,62.00
2019-03-31T12:40:43.972Z,62.70
2019-03-31T12:43:14.751Z,61.80
2019-03-31T12:45:45.519Z,59.60
2019-03-31T12:48:16.108Z,58.60
2019-03-31T12:50:46.638Z,59.10
2019-03-31T12:53:17.189Z,58.70
2019-03-31T12:55:59.521Z,58.10
2019-03-31T12:58:20.477Z,59.30
2019-03-31T13:00:50.970Z,59.20
2019-03-31T13:03:21.843Z,59.60
2019-03-31T13:05:53.293Z,59.60
2019-03-31T13:08:24.039Z,57.60
2019-03-31T13:10:55.732Z,57.80
2019-03-31T13:13:26.457Z,59.20
2019-03-31T13:15:56.944Z,58.40
2019-03-31T13:18:28.148Z,60.00
2019-03-31T13:20:59.013Z,60.30
2019-03-31T13:23:29.966Z,58.90
2019-03-31T13:26:00.176Z,59.00
2019-03-31T13:28:30.557Z,58.60
2019-03-31T13:31:01.348Z,62.00
2019-03-31T13:33:34.014Z,59.30
2019-03-31T13:36:04.517Z,59.70
2019-03-31T13:38:35.219Z,60.70
2019-03-31T13:41:06.392Z,58.40
2019-03-31T13:43:36.781Z,60.30
2019-03-31T13:46:07.406Z,57.30
2019-03-31T13:48:37.657Z,58.80
2019-03-31T13:51:08.166Z,58.30
2019-03-31T13:53:41.550Z,61.60
2019-03-31T13:56:14.197Z,55.90
2019-03-31T13:58:52.258Z,57.60
2019-03-31T14:01:16.902Z,57.70
2019-03-31T14:03:48.114Z,57.50
2019-03-31T14:06:18.485Z,60.90
2019-03-31T14:08:48.674Z,55.40
2019-03-31T14:11:21.767Z,56.70
2019-03-31T14:13:52.148Z,57.20
2019-03-31T14:16:22.442Z,56.50
2019-03-31T14:18:53.064Z,56.80
2019-03-31T14:21:23.321Z,56.30
2019-03-31T14:23:55.766Z,57.20
2019-03-31T14:26:26.050Z,51.90
2019-03-31T14:28:56.894Z,57.40
2019-03-31T14:31:27.183Z,56.80
2019-03-31T14:33:57.501Z,55.40
2019-03-31T14:36:46.854Z,55.90
2019-03-31T14:39:17.982Z,59.50
2019-03-31T14:41:48.546Z,56.10
2019-03-31T14:44:19.137Z,54.50
2019-03-31T14:46:50.226Z,57.30
2019-03-31T14:49:20.709Z,57.30
2019-03-31T14:51:51.809Z,54.20
2019-03-31T14:54:22.003Z,56.40
2019-03-31T14:56:58.724Z,56.40
2019-03-31T14:59:30.369Z,57.40
2019-03-31T15:02:01.158Z,54.90
2019-03-31T15:04:31.663Z,57.00
2019-03-31T15:07:02.439Z,54.00
2019-03-31T15:09:32.740Z,58.70
2019-03-31T15:12:07.192Z,56.20
2019-03-31T15:14:37.509Z,56.30
2019-03-31T15:17:07.697Z,56.70
2019-03-31T15:19:38.454Z,56.10
2019-03-31T15:22:08.909Z,57.40
2019-03-31T15:24:39.613Z,54.90
2019-03-31T15:27:09.955Z,60.20
2019-03-31T15:29:40.347Z,55.40
2019-03-31T15:32:13.131Z,59.30
2019-03-31T15:34:43.422Z,57.30
2019-03-31T15:37:14.265Z,55.40
2019-03-31T15:39:44.448Z,56.80
2019-03-31T15:42:14.703Z,58.00
2019-03-31T15:44:44.878Z,57.60
2019-03-31T15:47:16.286Z,55.80
2019-03-31T15:49:46.664Z,59.90
2019-03-31T15:52:17.266Z,60.00
2019-03-31T15:54:47.451Z,58.80
2019-03-31T15:57:17.741Z,61.90
2019-03-31T15:59:54.356Z,59.60
2019-03-31T16:02:28.931Z,62.60
2019-03-31T16:05:00.610Z,57.90
2019-03-31T16:07:34.403Z,56.70
2019-03-31T16:10:04.979Z,60.70
2019-03-31T16:12:35.306Z,57.00
2019-03-31T16:15:07.168Z,58.30
2019-03-31T16:17:36.975Z,59.80
2019-03-31T16:20:07.292Z,61.30
2019-03-31T16:22:53.873Z,60.00
2019-03-31T16:25:30.812Z,58.20
2019-03-31T16:28:02.301Z,58.00
2019-03-31T16:30:32.305Z,62.10
2019-03-31T16:33:01.984Z,62.00
2019-03-31T16:35:31.689Z,62.10
2019-03-31T16:38:01.577Z,64.20
2019-03-31T16:40:31.170Z,61.40
2019-03-31T16:43:02.343Z,63.20
2019-03-31T16:45:32.416Z,61.90
2019-03-31T16:48:03.054Z,61.90
2019-03-31T16:50:34.403Z,63.70
2019-03-31T16:53:04.438Z,63.00
2019-03-31T16:55:36.197Z,67.60
2019-03-31T16:58:09.282Z,60.40
2019-03-31T17:00:38.602Z,66.20
2019-03-31T17:03:08.750Z,63.50
2019-03-31T17:05:38.780Z,60.80
2019-03-31T17:08:08.462Z,58.90
2019-03-31T17:10:38.529Z,60.70
2019-03-31T17:13:09.698Z,61.10
2019-03-31T17:15:40.617Z,61.10
2019-03-31T17:18:10.461Z,66.20
2019-03-31T17:20:40.316Z,61.30
2019-03-31T17:23:10.366Z,63.80
2019-03-31T17:25:41.272Z,62.40
2019-03-31T17:28:22.363Z,62.90
2019-03-31T17:30:53.126Z,63.10
2019-03-31T17:33:22.968Z,61.60
2019-03-31T17:35:52.796Z,63.70
2019-03-31T17:38:22.461Z,61.70
2019-03-31T17:41:00.133Z,66.60
2019-03-31T17:43:29.796Z,62.30
2019-03-31T17:46:00.069Z,67.40
2019-03-31T17:48:30.950Z,60.60
2019-03-31T17:51:00.726Z,62.70
2019-03-31T17:53:30.230Z,61.70
2019-03-31T17:55:59.994Z,64.70
2019-03-31T17:58:29.586Z,64.70
2019-03-31T18:01:01.475Z,67.40
2019-03-31T18:03:31.176Z,67.90
2019-03-31T18:06:01.298Z,67.60
2019-03-31T18:08:31.104Z,65.60
2019-03-31T18:13:37.892Z,70.60
2019-03-31T18:16:08.569Z,69.60
2019-03-31T18:18:38.000Z,67.30
2019-03-31T18:21:09.692Z,72.40
2019-03-31T18:23:39.176Z,67.60
2019-03-31T18:26:09.137Z,64.20
2019-03-31T18:28:38.830Z,70.10
2019-03-31T18:31:10.715Z,72.60
2019-03-31T18:33:42.562Z,65.40
2019-03-31T18:36:12.517Z,68.40
2019-03-31T18:38:44.350Z,72.20
2019-03-31T18:41:15.026Z,72.70
2019-03-31T18:43:51.165Z,69.20
2019-03-31T18:46:16.358Z,65.40
2019-03-31T18:48:51.106Z,66.10
2019-03-31T18:51:21.291Z,64.80
2019-03-31T18:54:12.560Z,67.30
2019-03-31T18:56:53.819Z,67.40
2019-03-31T18:59:57.668Z,69.90
2019-03-31T19:02:53.815Z,67.60
2019-03-31T19:05:41.372Z,65.70
2019-03-31T19:08:24.975Z,68.90
2019-03-31T19:11:23.849Z,65.70
2019-03-31T19:14:04.820Z,66.60
2019-03-31T19:16:41.803Z,67.90
2019-03-31T19:19:18.543Z,65.30
2019-03-31T19:22:07.182Z,66.60
2019-03-31T19:24:59.027Z,67.80
2019-03-31T19:27:35.113Z,65.70
2019-03-31T19:30:41.905Z,65.50
2019-03-31T19:33:31.400Z,65.30
2019-03-31T19:36:25.917Z,65.00
2019-03-31T19:39:13.093Z,64.30
2019-03-31T19:42:10.647Z,65.80
2019-03-31T19:45:05.095Z,65.60
2019-03-31T19:47:57.193Z,66.40
2019-03-31T19:50:44.572Z,67.30
2019-03-31T19:53:30.747Z,66.50
2019-03-31T19:56:18.799Z,68.30
2019-03-31T19:59:17.182Z,67.60
2019-03-31T20:02:01.631Z,66.70
2019-03-31T20:05:05.416Z,65.50
2019-03-31T20:08:05.822Z,67.30
2019-03-31T20:10:52.909Z,67.10
2019-03-31T20:13:40.463Z,66.30
2019-03-31T20:16:37.792Z,68.30
2019-03-31T20:19:41.798Z,68.30
2019-03-31T20:22:29.052Z,68.20
2019-03-31T20:25:18.693Z,67.60
2019-03-31T20:28:15.861Z,67.00
2019-03-31T20:31:03.023Z,67.20
2019-03-31T20:33:56.649Z,67.30
2019-03-31T20:36:35.697Z,67.90
2019-03-31T20:39:56.160Z,67.70
2019-03-31T20:42:53.261Z,68.10
2019-03-31T20:45:23.297Z,67.80
2019-03-31T20:47:54.470Z,67.90
2019-03-31T20:50:24.681Z,67.80
2019-03-31T20:52:54.439Z,67.90
2019-03-31T20:55:24.395Z,67.90
2019-03-31T20:57:54.483Z,68.00
2019-03-31T21:00:24.262Z,68.20
2019-03-31T21:02:54.214Z,68.00
2019-03-31T21:05:23.845Z,68.30
2019-03-31T21:07:53.999Z,68.00
2019-03-31T21:10:24.137Z,68.40
2019-03-31T21:12:54.055Z,68.60
2019-03-31T21:15:24.139Z,68.80
2019-03-31T21:17:54.380Z,68.70
2019-03-31T21:20:24.459Z,68.80
2019-03-31T21:22:54.351Z,68.90
2019-03-31T21:25:24.630Z,69.10
2019-03-31T21:27:54.356Z,68.90
2019-03-31T21:30:24.123Z,69.10
2019-03-31T21:32:53.720Z,69.20
2019-03-31T21:35:23.565Z,69.40
2019-03-31T21:37:53.283Z,68.90
2019-03-31T21:40:23.232Z,69.70
2019-03-31T21:42:52.746Z,69.60
2019-03-31T21:45:22.358Z,69.30
2019-03-31T21:47:52.022Z,69.60
2019-03-31T21:50:22.184Z,69.60
2019-03-31T21:52:52.154Z,69.30
2019-03-31T21:55:23.046Z,69.70
2019-03-31T21:57:54.370Z,69.90
2019-03-31T22:00:38.304Z,69.70
2019-03-31T22:03:09.438Z,69.70
2019-03-31T22:05:39.353Z,70.10
2019-03-31T22:08:17.229Z,70.10
2019-03-31T22:10:47.268Z,70.10
2019-03-31T22:13:17.154Z,70.10
2019-03-31T22:15:47.137Z,70.20
2019-03-31T22:18:17.103Z,70.30
2019-03-31T22:20:47.579Z,70.50
2019-03-31T22:23:17.359Z,70.20
2019-03-31T22:25:47.262Z,70.60
2019-03-31T22:28:17.209Z,70.60
2019-03-31T22:30:48.551Z,70.70
2019-03-31T22:33:18.584Z,70.70
2019-03-31T22:36:06.903Z,71.00
2019-03-31T22:38:36.886Z,71.10
2019-03-31T22:41:06.990Z,71.30
2019-03-31T22:43:36.763Z,71.30
2019-03-31T22:46:07.153Z,71.10
2019-03-31T22:48:37.058Z,71.20
2019-03-31T22:51:06.962Z,71.20
2019-03-31T22:53:37.158Z,71.50
2019-03-31T22:56:07.875Z,71.50
2019-03-31T22:58:39.830Z,71.40
2019-03-31T23:01:10.195Z,71.10
2019-03-31T23:03:40.158Z,71.10
2019-03-31T23:06:09.961Z,71.90
2019-03-31T23:08:39.778Z,71.30
2019-03-31T23:11:09.882Z,72.00
2019-03-31T23:13:39.914Z,72.40
2019-03-31T23:16:10.098Z,72.30
2019-03-31T23:18:39.974Z,72.00
2019-03-31T23:21:09.695Z,72.60
2019-03-31T23:23:39.599Z,72.80
2019-03-31T23:26:09.629Z,72.40
2019-03-31T23:28:48.926Z,72.60
2019-03-31T23:31:19.235Z,72.50
2019-03-31T23:33:50.066Z,72.30
2019-03-31T23:36:20.049Z,72.40
2019-03-31T23:38:49.899Z,72.70
2019-03-31T23:41:19.945Z,72.60
2019-03-31T23:43:51.017Z,72.70
2019-03-31T23:46:21.207Z,72.70
2019-03-31T23:48:50.946Z,72.90
2019-03-31T23:51:20.890Z,73.30
2019-03-31T23:53:50.725Z,72.80
2019-03-31T23:56:22.247Z,72.60
2019-03-31T23:58:52.546Z,72.50
